createdAt,value
2024-01-18T00:00:57.261Z,15.13
2024-01-18T00:03:24.253Z,11.02
2024-01-18T00:05:51.239Z,12.88
2024-01-18T00:08:18.098Z,14.05
2024-01-18T00:10:44.970Z,9.80
2024-01-18T00:13:12.269Z,12.25
2024-01-18T00:15:39.066Z,11.90
2024-01-18T00:18:06.720Z,13.40
2024-01-18T00:20:33.624Z,13.52
2024-01-18T00:23:00.409Z,15.95
2024-01-18T00:25:27.240Z,12.15
2024-01-18T00:27:53.986Z,14.25
2024-01-18T00:30:20.815Z,12.98
2024-01-18T00:32:47.707Z,14.13
2024-01-18T00:35:14.508Z,11.68
2024-01-18T00:37:41.275Z,10.63
2024-01-18T00:40:08.941Z,17.05
2024-01-18T00:42:35.777Z,11.45
2024-01-18T00:45:02.587Z,12.90
2024-01-18T00:47:29.516Z,13.50
2024-01-18T00:49:56.399Z,11.23
2024-01-18T00:52:23.233Z,12.45
2024-01-18T00:54:50.156Z,16.85
2024-01-18T00:57:17.004Z,9.95
2024-01-18T00:59:43.866Z,15.88
2024-01-18T01:02:11.202Z,12.80
2024-01-18T01:04:37.978Z,14.05
2024-01-18T01:07:05.063Z,13.10
2024-01-18T01:09:32.158Z,16.92
2024-01-18T01:11:58.984Z,16.58
2024-01-18T01:14:25.837Z,11.93
2024-01-18T01:16:52.944Z,12.70
2024-01-18T01:19:19.675Z,11.75
2024-01-18T01:21:46.689Z,14.70
2024-01-18T01:24:13.625Z,17.05
2024-01-18T01:26:40.327Z,13.00
2024-01-18T01:29:09.365Z,14.63
2024-01-18T01:31:36.693Z,15.98
2024-01-18T01:34:03.523Z,14.65
2024-01-18T01:36:30.456Z,13.10
2024-01-18T01:38:57.548Z,14.07
2024-01-18T01:41:24.419Z,13.57
2024-01-18T01:43:58.700Z,16.95
2024-01-18T01:46:26.110Z,16.48
2024-01-18T01:48:57.783Z,10.82
2024-01-18T01:51:24.890Z,15.85
2024-01-18T01:53:53.031Z,13.52
2024-01-18T01:56:19.862Z,16.88
2024-01-18T01:58:47.581Z,12.20
2024-01-18T02:01:14.370Z,16.98
2024-01-18T02:03:41.158Z,10.85
2024-01-18T02:06:08.211Z,17.25
2024-01-18T02:08:35.118Z,15.57
2024-01-18T02:11:02.448Z,20.75
2024-01-18T02:13:31.107Z,15.02
2024-01-18T02:15:57.781Z,15.55
2024-01-18T02:18:24.615Z,14.70
2024-01-18T02:20:51.588Z,17.52
2024-01-18T02:23:18.499Z,16.48
2024-01-18T02:25:45.287Z,13.77
2024-01-18T02:28:12.662Z,19.27
2024-01-18T02:30:39.365Z,15.85
2024-01-18T02:33:06.136Z,18.15
2024-01-18T02:35:32.948Z,15.30
2024-01-18T02:37:59.674Z,12.82
2024-01-18T02:40:26.463Z,15.38
2024-01-18T02:42:53.438Z,17.70
2024-01-18T02:45:20.222Z,18.10
2024-01-18T02:47:47.057Z,17.67
2024-01-18T02:50:14.067Z,19.60
2024-01-18T02:52:40.962Z,14.07
2024-01-18T02:55:08.856Z,20.88
2024-01-18T02:57:35.763Z,11.52
2024-01-18T03:00:02.814Z,16.88
2024-01-18T03:02:29.567Z,20.77
2024-01-18T03:04:56.571Z,22.33
2024-01-18T03:07:23.269Z,20.25
2024-01-18T03:09:50.007Z,21.77
2024-01-18T03:12:16.843Z,20.77
2024-01-18T03:14:43.662Z,21.52
2024-01-18T03:17:10.361Z,21.45
2024-01-18T03:19:37.296Z,17.00
2024-01-18T03:22:04.371Z,19.60
2024-01-18T03:24:31.118Z,19.27
2024-01-18T03:26:58.039Z,20.35
2024-01-18T03:29:24.789Z,24.45
2024-01-18T03:31:51.527Z,22.25
2024-01-18T03:34:18.580Z,23.23
2024-01-18T03:36:45.508Z,21.27
2024-01-18T03:39:12.296Z,22.33
2024-01-18T03:41:39.189Z,19.42
2024-01-18T03:44:05.918Z,27.02
2024-01-18T03:46:32.624Z,24.10
2024-01-18T03:49:00.149Z,23.10
2024-01-18T03:51:27.040Z,21.73
2024-01-18T03:53:53.727Z,24.08
2024-01-18T03:56:20.694Z,25.98
2024-01-18T03:58:47.533Z,24.40
2024-01-18T04:01:14.686Z,25.00
2024-01-18T04:03:44.049Z,22.77
2024-01-18T04:06:13.253Z,15.13
2024-01-18T04:08:40.171Z,26.63
2024-01-18T04:11:07.567Z,27.42
2024-01-18T04:13:34.357Z,28.58
2024-01-18T04:16:01.093Z,27.10
2024-01-18T04:18:28.076Z,26.00
2024-01-18T04:20:55.060Z,26.83
2024-01-18T04:23:22.661Z,26.95
2024-01-18T04:25:53.235Z,30.38
2024-01-18T04:28:20.602Z,28.80
2024-01-18T04:30:47.757Z,26.58
2024-01-18T04:33:14.958Z,27.08
2024-01-18T04:35:41.720Z,29.33
2024-01-18T04:38:08.412Z,28.35
2024-01-18T04:40:35.519Z,29.58
2024-01-18T04:43:02.215Z,29.58
2024-01-18T04:45:28.995Z,30.90
2024-01-18T04:47:57.784Z,28.55
2024-01-18T04:50:27.428Z,32.95
2024-01-18T04:52:55.169Z,30.05
2024-01-18T04:55:22.851Z,32.42
2024-01-18T04:57:50.697Z,31.05
2024-01-18T05:00:18.877Z,29.20
2024-01-18T05:02:45.761Z,31.88
2024-01-18T05:05:13.258Z,32.90
2024-01-18T05:07:42.749Z,33.40
2024-01-18T05:10:10.682Z,32.85
2024-01-18T05:12:38.459Z,30.00
2024-01-18T05:15:06.030Z,26.95
2024-01-18T05:17:38.947Z,32.33
2024-01-18T05:20:07.277Z,32.03
2024-01-18T05:22:34.677Z,29.70
2024-01-18T05:25:01.714Z,31.83
2024-01-18T05:27:31.282Z,31.27
2024-01-18T05:29:58.767Z,27.67
2024-01-18T05:32:25.892Z,30.20
2024-01-18T05:34:53.590Z,29.27
2024-01-18T05:37:23.887Z,27.63
2024-01-18T05:39:54.679Z,31.92
2024-01-18T05:42:21.655Z,31.52
2024-01-18T05:44:49.203Z,27.85
2024-01-18T05:47:16.138Z,26.80
2024-01-18T05:49:43.014Z,27.45
2024-01-18T05:52:09.958Z,27.55
2024-01-18T05:54:36.991Z,27.48
2024-01-18T05:57:05.772Z,28.48
2024-01-18T05:59:32.903Z,26.38
2024-01-18T06:02:00.643Z,25.92
2024-01-18T06:04:27.655Z,29.55
2024-01-18T06:06:54.899Z,25.92
2024-01-18T06:09:22.056Z,26.80
2024-01-18T06:11:49.898Z,25.35
2024-01-18T06:14:16.828Z,24.50
2024-01-18T06:16:43.944Z,24.77
2024-01-18T06:19:13.040Z,22.33
2024-01-18T06:21:40.715Z,20.90
2024-01-18T06:24:08.276Z,21.85
2024-01-18T06:26:34.972Z,23.83
2024-01-18T06:29:02.141Z,17.48
2024-01-18T06:31:29.759Z,21.55
2024-01-18T06:33:57.511Z,17.08
2024-01-18T06:36:24.449Z,18.00
2024-01-18T06:38:51.342Z,17.23
2024-01-18T06:41:18.524Z,21.85
2024-01-18T06:43:45.453Z,19.70
2024-01-18T06:46:19.157Z,21.70
2024-01-18T06:48:54.559Z,20.08
2024-01-18T06:51:23.177Z,20.77
2024-01-18T06:53:50.690Z,19.40
2024-01-18T06:56:17.996Z,19.83
2024-01-18T06:58:45.547Z,17.23
2024-01-18T07:01:14.263Z,19.83
2024-01-18T07:03:43.680Z,20.02
2024-01-18T07:06:11.142Z,21.23
2024-01-18T07:08:40.975Z,21.65
2024-01-18T07:11:07.803Z,18.58
2024-01-18T07:13:34.795Z,18.88
2024-01-18T07:16:01.916Z,18.80
2024-01-18T07:18:28.932Z,20.38
2024-01-18T07:20:55.799Z,19.30
2024-01-18T07:23:22.670Z,20.52
2024-01-18T07:25:52.659Z,17.20
2024-01-18T07:28:22.740Z,19.60
2024-01-18T07:30:50.218Z,19.27
2024-01-18T07:33:17.996Z,18.20
2024-01-18T07:35:44.945Z,21.02
2024-01-18T07:38:11.659Z,18.83
2024-01-18T07:40:38.367Z,18.13
2024-01-18T07:43:05.364Z,17.73
2024-01-18T07:45:32.246Z,19.00
2024-01-18T07:47:59.107Z,21.83
2024-01-18T07:50:34.735Z,18.30
2024-01-18T07:53:04.046Z,17.10
2024-01-18T07:55:31.381Z,19.17
2024-01-18T07:57:58.089Z,20.52
2024-01-18T08:00:25.692Z,19.13
2024-01-18T08:02:52.658Z,18.55
2024-01-18T08:05:19.337Z,20.65
2024-01-18T08:07:46.107Z,18.08
2024-01-18T08:10:13.169Z,20.35
2024-01-18T08:12:39.960Z,20.30
2024-01-18T08:15:07.113Z,21.88
2024-01-18T08:17:34.223Z,18.67
2024-01-18T08:20:01.287Z,19.63
2024-01-18T08:22:29.057Z,20.65
2024-01-18T08:24:58.213Z,18.13
2024-01-18T08:27:25.447Z,17.23
2024-01-18T08:29:52.492Z,18.40
2024-01-18T08:32:19.380Z,17.70
2024-01-18T08:34:46.272Z,16.63
2024-01-18T08:37:14.032Z,19.50
2024-01-18T08:39:41.225Z,16.83
2024-01-18T08:42:08.568Z,16.75
2024-01-18T08:44:35.663Z,13.15
2024-01-18T08:47:02.464Z,19.95
2024-01-18T08:49:30.140Z,19.40
2024-01-18T08:51:57.195Z,18.42
2024-01-18T08:54:24.181Z,18.80
2024-01-18T08:56:50.976Z,19.60
2024-01-18T08:59:17.757Z,19.27
2024-01-18T09:01:44.813Z,15.77
2024-01-18T09:04:11.764Z,19.08
2024-01-18T09:06:39.784Z,16.80
2024-01-18T09:09:11.340Z,16.15
2024-01-18T09:11:39.844Z,17.48
2024-01-18T09:14:07.099Z,17.73
2024-01-18T09:16:33.909Z,16.10
2024-01-18T09:19:10.892Z,16.95
2024-01-18T09:21:42.922Z,18.77
2024-01-18T09:24:09.903Z,19.70
2024-01-18T09:26:37.041Z,19.13
2024-01-18T09:29:03.993Z,18.92
2024-01-18T09:31:38.402Z,19.75
2024-01-18T09:34:09.873Z,16.08
2024-01-18T09:36:37.409Z,18.75
2024-01-18T09:39:09.177Z,16.92
2024-01-18T09:41:37.017Z,18.95
2024-01-18T09:44:05.355Z,17.48
2024-01-18T09:46:33.548Z,18.00
2024-01-18T09:49:03.249Z,17.55
2024-01-18T09:51:32.795Z,22.80
2024-01-18T09:54:02.262Z,18.90
2024-01-18T09:56:29.965Z,19.90
2024-01-18T09:58:58.500Z,19.33
2024-01-18T10:01:27.046Z,17.95
2024-01-18T10:03:55.662Z,22.05
2024-01-18T10:06:23.282Z,16.45
2024-01-18T10:08:52.762Z,17.05
2024-01-18T10:11:20.436Z,17.85
2024-01-18T10:13:58.792Z,18.85
2024-01-18T10:16:28.800Z,18.27
2024-01-18T10:18:59.462Z,15.77
2024-01-18T10:21:26.235Z,17.50
2024-01-18T10:23:54.440Z,18.30
2024-01-18T10:26:29.106Z,18.23
2024-01-18T10:28:57.274Z,16.45
2024-01-18T10:31:25.181Z,18.70
2024-01-18T10:33:52.967Z,18.00
2024-01-18T10:36:23.137Z,19.13
2024-01-18T10:38:50.820Z,17.40
2024-01-18T10:41:20.847Z,19.23
2024-01-18T10:43:49.394Z,19.95
2024-01-18T10:46:16.508Z,19.75
2024-01-18T10:48:48.440Z,17.60
2024-01-18T10:51:15.665Z,17.77
2024-01-18T10:53:43.234Z,19.25
2024-01-18T10:56:10.669Z,18.90
2024-01-18T10:58:37.369Z,18.38
2024-01-18T11:01:05.444Z,19.92
2024-01-18T11:03:33.063Z,18.67
2024-01-18T11:06:00.623Z,17.77
2024-01-18T11:08:28.025Z,20.48
2024-01-18T11:10:55.156Z,21.08
2024-01-18T11:13:21.939Z,18.45
2024-01-18T11:15:49.116Z,19.02
2024-01-18T11:18:16.288Z,19.92
2024-01-18T11:21:10.469Z,19.63
2024-01-18T11:23:39.459Z,21.25
2024-01-18T11:26:08.109Z,19.83
2024-01-18T11:28:35.722Z,19.23
2024-01-18T11:31:03.211Z,20.90
2024-01-18T11:33:30.145Z,20.02
2024-01-18T11:35:59.731Z,22.20
2024-01-18T11:38:33.840Z,20.65
2024-01-18T11:41:11.398Z,20.90
2024-01-18T11:43:57.792Z,19.63
2024-01-18T11:46:40.279Z,20.48
2024-01-18T11:49:07.961Z,22.05
2024-01-18T11:51:35.652Z,20.02
2024-01-18T11:54:03.454Z,19.60
2024-01-18T11:56:30.763Z,20.05
2024-01-18T11:59:03.371Z,21.20
2024-01-18T12:01:33.333Z,20.63
2024-01-18T12:04:00.701Z,20.52
2024-01-18T12:06:30.305Z,20.75
2024-01-18T12:08:58.266Z,20.92
2024-01-18T12:11:25.236Z,19.75
2024-01-18T12:13:52.144Z,28.52
2024-01-18T12:16:22.732Z,24.23
2024-01-18T12:18:51.774Z,20.00
2024-01-18T12:21:20.437Z,21.63
2024-01-18T12:23:48.669Z,20.92
2024-01-18T12:26:16.178Z,19.50
2024-01-18T12:28:42.947Z,26.70
2024-01-18T12:31:10.766Z,22.15
2024-01-18T12:33:38.539Z,23.20
2024-01-18T12:36:08.919Z,20.65
2024-01-18T12:38:37.238Z,20.38
2024-01-18T12:41:04.447Z,20.38
2024-01-18T12:43:31.384Z,21.65
2024-01-18T12:45:58.747Z,19.35
2024-01-18T12:48:28.633Z,21.50
2024-01-18T12:50:56.177Z,21.42
2024-01-18T12:53:25.036Z,22.17
2024-01-18T12:55:52.267Z,21.63
2024-01-18T12:58:18.986Z,28.77
2024-01-18T13:00:51.650Z,30.33
2024-01-18T13:03:18.814Z,27.17
2024-01-18T13:05:46.345Z,24.65
2024-01-18T13:08:14.513Z,23.80
2024-01-18T13:10:41.389Z,24.10
2024-01-18T13:13:11.334Z,22.48
2024-01-18T13:15:41.804Z,18.80
2024-01-18T13:18:10.599Z,20.95
2024-01-18T13:20:40.724Z,20.80
2024-01-18T13:23:10.924Z,21.30
2024-01-18T13:25:38.056Z,20.15
2024-01-18T13:28:05.901Z,23.23
2024-01-18T13:30:33.574Z,21.25
2024-01-18T13:33:05.915Z,19.77
2024-01-18T13:35:35.139Z,22.77
2024-01-18T13:38:01.933Z,20.85
2024-01-18T13:40:28.744Z,22.02
2024-01-18T13:42:55.719Z,18.73
2024-01-18T13:45:25.193Z,21.23
2024-01-18T13:47:52.683Z,23.05
2024-01-18T13:50:23.341Z,23.23
2024-01-18T13:52:50.732Z,25.50
2024-01-18T13:55:18.066Z,22.42
2024-01-18T13:57:45.695Z,23.27
2024-01-18T14:00:13.848Z,21.08
2024-01-18T14:02:41.152Z,22.27
2024-01-18T14:05:08.544Z,21.83
2024-01-18T14:07:35.585Z,22.23
2024-01-18T14:10:02.596Z,23.50
2024-01-18T14:12:29.552Z,21.83
2024-01-18T14:14:56.647Z,22.70
2024-01-18T14:17:23.331Z,21.80
2024-01-18T14:19:50.673Z,23.08
2024-01-18T14:22:17.935Z,23.40
2024-01-18T14:24:45.802Z,21.13
2024-01-18T14:27:12.969Z,22.98
2024-01-18T14:29:40.345Z,22.10
2024-01-18T14:32:07.383Z,21.85
2024-01-18T14:34:34.773Z,24.08
2024-01-18T14:37:01.918Z,22.60
2024-01-18T14:39:28.825Z,22.90
2024-01-18T14:41:55.744Z,22.08
2024-01-18T14:44:22.469Z,21.77
2024-01-18T14:46:49.383Z,24.95
2024-01-18T14:49:19.551Z,24.20
2024-01-18T14:51:46.532Z,21.83
2024-01-18T14:54:13.300Z,22.70
2024-01-18T14:56:48.398Z,23.17
2024-01-18T14:59:15.953Z,23.83
2024-01-18T15:01:43.539Z,24.45
2024-01-18T15:04:11.506Z,23.63
2024-01-18T15:06:38.706Z,22.00
2024-01-18T15:09:05.644Z,24.65
2024-01-18T15:11:32.528Z,22.75
2024-01-18T15:13:59.380Z,23.85
2024-01-18T15:16:27.175Z,21.85
2024-01-18T15:19:03.153Z,23.20
2024-01-18T15:21:35.120Z,23.25
2024-01-18T15:24:02.097Z,25.02
2024-01-18T15:26:28.843Z,22.10
2024-01-18T15:28:55.783Z,25.10
2024-01-18T15:31:29.881Z,25.20
2024-01-18T15:33:57.425Z,26.95
2024-01-18T15:36:26.273Z,23.10
2024-01-18T15:38:53.402Z,28.60
2024-01-18T15:41:20.324Z,25.02
2024-01-18T15:43:47.121Z,26.70
2024-01-18T15:46:16.823Z,26.40
2024-01-18T15:48:43.889Z,25.02
2024-01-18T15:51:13.631Z,26.45
2024-01-18T15:53:40.811Z,25.42
2024-01-18T15:56:10.185Z,25.10
2024-01-18T15:58:36.895Z,26.15
2024-01-18T16:01:04.039Z,26.55
2024-01-18T16:03:30.932Z,23.98
2024-01-18T16:05:57.729Z,27.70
2024-01-18T16:08:24.607Z,25.52
2024-01-18T16:10:51.433Z,25.73
2024-01-18T16:13:18.263Z,25.73
2024-01-18T16:15:45.276Z,25.60
2024-01-18T16:18:12.211Z,25.13
2024-01-18T16:20:38.953Z,24.77
2024-01-18T16:23:05.952Z,27.80
2024-01-18T16:25:33.508Z,25.95
2024-01-18T16:28:00.290Z,25.52
2024-01-18T16:30:30.735Z,24.70
2024-01-18T16:32:58.703Z,26.02
2024-01-18T16:35:25.688Z,25.48
2024-01-18T16:37:52.995Z,23.80
2024-01-18T16:40:19.946Z,27.05
2024-01-18T16:42:46.777Z,27.13
2024-01-18T16:45:16.844Z,27.27
2024-01-18T16:47:44.760Z,28.10
2024-01-18T16:50:11.612Z,25.15
2024-01-18T16:52:38.629Z,26.13
2024-01-18T16:55:06.471Z,27.48
2024-01-18T16:57:35.334Z,25.70
2024-01-18T17:00:02.274Z,25.70
2024-01-18T17:02:29.423Z,28.88
2024-01-18T17:04:56.545Z,28.45
2024-01-18T17:07:24.185Z,27.80
2024-01-18T17:09:51.010Z,28.35
2024-01-18T17:12:17.754Z,31.63
2024-01-18T17:14:44.748Z,26.98
2024-01-18T17:17:11.565Z,28.92
2024-01-18T17:19:38.381Z,30.20
2024-01-18T17:22:05.515Z,28.83
2024-01-18T17:24:34.144Z,29.83
2024-01-18T17:27:01.085Z,30.92
2024-01-18T17:29:28.214Z,27.50
2024-01-18T17:31:55.201Z,31.02
2024-01-18T17:34:23.448Z,31.00
2024-01-18T17:36:50.857Z,31.15
2024-01-18T17:39:20.413Z,31.25
2024-01-18T17:41:47.384Z,30.25
2024-01-18T17:44:17.860Z,29.35
2024-01-18T17:46:50.887Z,31.00
2024-01-18T17:49:23.835Z,32.28
2024-01-18T17:51:50.936Z,32.03
2024-01-18T17:54:18.636Z,26.77
2024-01-18T17:56:49.375Z,30.38
2024-01-18T17:59:17.183Z,31.23
2024-01-18T18:01:43.914Z,31.50
2024-01-18T18:04:10.909Z,30.38
2024-01-18T18:06:39.590Z,29.65
2024-01-18T18:09:07.712Z,37.20
2024-01-18T18:11:34.727Z,32.40
2024-01-18T18:14:01.903Z,31.83
2024-01-18T18:16:28.663Z,29.70
2024-01-18T18:18:55.596Z,31.42
2024-01-18T18:21:24.639Z,30.52
2024-01-18T18:23:51.921Z,33.65
2024-01-18T18:26:18.926Z,36.30
2024-01-18T18:28:45.901Z,33.83
2024-01-18T18:31:12.966Z,34.78
2024-01-18T18:33:40.029Z,33.67
2024-01-18T18:36:07.063Z,32.80
2024-01-18T18:38:34.461Z,31.27
2024-01-18T18:41:02.197Z,32.50
2024-01-18T18:43:30.510Z,35.35
2024-01-18T18:45:58.232Z,30.65
2024-01-18T18:48:25.847Z,31.50
2024-01-18T18:50:53.982Z,32.63
2024-01-18T18:53:20.985Z,32.95
2024-01-18T18:55:48.003Z,33.88
2024-01-18T18:58:15.401Z,36.22
2024-01-18T19:00:42.225Z,32.83
2024-01-18T19:03:09.149Z,32.55
2024-01-18T19:05:36.112Z,30.77
2024-01-18T19:08:04.397Z,35.13
2024-01-18T19:10:31.322Z,34.13
2024-01-18T19:12:58.318Z,37.00
2024-01-18T19:15:25.123Z,33.15
2024-01-18T19:17:52.180Z,34.58
2024-01-18T19:20:20.450Z,31.52
2024-01-18T19:22:47.213Z,34.03
2024-01-18T19:25:14.271Z,33.25
2024-01-18T19:27:41.076Z,33.90
2024-01-18T19:30:08.383Z,31.40
2024-01-18T19:32:35.885Z,32.90
2024-01-18T19:35:03.112Z,33.72
2024-01-18T19:37:29.792Z,32.83
2024-01-18T19:39:56.741Z,33.03
2024-01-18T19:42:23.585Z,31.60
2024-01-18T19:44:50.374Z,37.20
2024-01-18T19:47:17.453Z,33.05
2024-01-18T19:49:45.110Z,36.38
2024-01-18T19:52:12.149Z,33.83
2024-01-18T19:54:39.052Z,34.20
2024-01-18T19:57:06.074Z,35.92
2024-01-18T19:59:35.453Z,35.42
2024-01-18T20:02:06.832Z,33.55
2024-01-18T20:04:35.711Z,33.60
2024-01-18T20:07:03.139Z,31.20
2024-01-18T20:09:30.198Z,29.60
2024-01-18T20:11:57.308Z,36.67
2024-01-18T20:14:25.317Z,34.08
2024-01-18T20:16:52.360Z,35.28
2024-01-18T20:19:19.922Z,32.17
2024-01-18T20:21:48.690Z,32.13
2024-01-18T20:24:15.733Z,31.60
2024-01-18T20:26:43.014Z,35.13
2024-01-18T20:29:10.676Z,31.80
2024-01-18T20:31:44.321Z,30.35
2024-01-18T20:34:11.763Z,33.15
2024-01-18T20:36:39.038Z,33.80
2024-01-18T20:39:08.321Z,34.03
2024-01-18T20:41:36.277Z,33.75
2024-01-18T20:44:03.069Z,35.05
2024-01-18T20:46:32.193Z,32.40
2024-01-18T20:48:59.299Z,32.03
2024-01-18T20:51:26.238Z,34.72
2024-01-18T20:53:53.356Z,40.28
2024-01-18T20:56:20.444Z,37.40
2024-01-18T20:58:50.464Z,37.78
2024-01-18T21:01:18.143Z,39.13
2024-01-18T21:03:45.438Z,36.78
2024-01-18T21:06:12.826Z,40.15
2024-01-18T21:08:39.940Z,38.72
2024-01-18T21:11:06.875Z,41.08
2024-01-18T21:13:33.926Z,37.15
2024-01-18T21:16:01.241Z,38.05
2024-01-18T21:18:28.202Z,36.20
2024-01-18T21:20:55.108Z,36.10
2024-01-18T21:23:23.539Z,38.88
2024-01-18T21:25:50.350Z,35.55
2024-01-18T21:28:17.439Z,33.35
2024-01-18T21:30:44.299Z,34.50
2024-01-18T21:33:12.824Z,34.83
2024-01-18T21:35:39.831Z,37.55
2024-01-18T21:38:06.766Z,34.67
2024-01-18T21:40:33.483Z,33.90
2024-01-18T21:43:00.376Z,33.78
2024-01-18T21:45:27.523Z,34.38
2024-01-18T21:47:57.847Z,35.13
2024-01-18T21:50:25.851Z,33.53
2024-01-18T21:52:53.818Z,35.33
2024-01-18T21:55:20.527Z,36.35
2024-01-18T21:57:47.271Z,32.30
2024-01-18T22:00:14.301Z,36.20
2024-01-18T22:02:42.191Z,33.85
2024-01-18T22:05:09.516Z,34.60
2024-01-18T22:07:36.749Z,32.10
2024-01-18T22:10:03.725Z,33.47
2024-01-18T22:12:30.435Z,34.25
2024-01-18T22:14:57.211Z,33.28
2024-01-18T22:17:24.154Z,32.80
2024-01-18T22:19:58.516Z,33.53
2024-01-18T22:22:33.185Z,35.75
2024-01-18T22:25:00.016Z,35.67
2024-01-18T22:27:28.106Z,33.30
2024-01-18T22:29:55.497Z,32.00
2024-01-18T22:32:23.354Z,34.42
2024-01-18T22:34:52.173Z,32.10
2024-01-18T22:37:19.886Z,35.05
2024-01-18T22:39:46.615Z,33.72
2024-01-18T22:42:13.380Z,31.80
2024-01-18T22:44:40.516Z,34.50
2024-01-18T22:47:07.450Z,32.38
2024-01-18T22:49:35.074Z,30.17
2024-01-18T22:52:02.239Z,37.10
2024-01-18T22:54:29.554Z,31.95
2024-01-18T22:56:57.183Z,32.55
2024-01-18T22:59:24.246Z,32.40
2024-01-18T23:01:51.009Z,33.00
2024-01-18T23:04:17.933Z,35.58
2024-01-18T23:06:44.902Z,33.22
2024-01-18T23:09:11.841Z,33.50
2024-01-18T23:11:38.586Z,33.70
2024-01-18T23:14:05.842Z,33.03
2024-01-18T23:16:32.609Z,33.78
2024-01-18T23:18:59.370Z,30.95
2024-01-18T23:21:26.544Z,34.42
2024-01-18T23:23:53.428Z,35.70
2024-01-18T23:26:20.233Z,35.03
2024-01-18T23:28:47.075Z,33.55
2024-01-18T23:31:13.735Z,31.92
2024-01-18T23:33:40.739Z,34.40
2024-01-18T23:36:08.151Z,34.97
2024-01-18T23:38:34.890Z,33.65
2024-01-18T23:41:01.947Z,35.78
2024-01-18T23:43:28.886Z,36.42
2024-01-18T23:45:55.644Z,37.90
2024-01-18T23:48:22.854Z,39.28
2024-01-18T23:50:50.011Z,41.63
2024-01-18T23:53:16.805Z,36.30
2024-01-18T23:55:43.532Z,38.58
2024-01-18T23:58:10.390Z,41.33
